Time,TemperatureF,DewpointF,PressureIn,WindDirection,WindDirectionDegrees,WindSpeedMPH,WindSpeedGustMPH,Humidity,HourlyPrecipIn,Conditions,Clouds,dailyrainin,SoftwareType,DateUTC
2013-06-24 00:01:00,73.3,68.8,29.99,West,276,0.6,0.9,86,0.00,,,0.00,WUHU216HW,2013-06-24 04:01:00,
2013-06-24 00:03:00,73.3,68.8,29.98,North,0,0.0,0.0,86,0.00,,,0.00,WUHU216HW,2013-06-24 04:03:00,
2013-06-24 00:04:00,73.3,68.8,29.98,North,0,0.0,0.0,86,0.00,,,0.00,WUHU216HW,2013-06-24 04:04:00,
2013-06-24 00:05:00,73.3,68.8,29.98,North,0,0.0,0.0,86,0.00,,,0.00,WUHU216HW,2013-06-24 04:05:00,
2013-06-24 00:09:00,73.3,68.8,29.98,SSW,212,1.2,2.5,86,0.00,,,0.00,WUHU216HW,2013-06-24 04:09:00,
2013-06-24 00:14:00,73.1,68.6,29.98,SW,225,0.1,0.2,86,0.00,,,0.00,WUHU216HW,2013-06-24 04:14:00,
2013-06-24 00:19:00,72.9,68.4,29.98,West,261,0.6,1.1,86,0.00,,,0.00,WUHU216HW,2013-06-24 04:19:00,
2013-06-24 00:24:00,72.9,68.4,29.98,West,270,0.3,0.4,86,0.00,,,0.00,WUHU216HW,2013-06-24 04:24:00,
2013-06-24 00:29:00,72.7,68.6,29.98,SW,229,0.4,0.7,87,0.00,,,0.00,WUHU216HW,2013-06-24 04:29:00,
2013-06-24 00:34:00,72.5,68.4,29.98,SW,225,0.3,0.4,87,0.00,,,0.00,WUHU216HW,2013-06-24 04:34:00,
2013-06-24 00:39:00,72.4,68.3,29.97,North,0,0.0,0.0,87,0.00,,,0.00,WUHU216HW,2013-06-24 04:39:00,
2013-06-24 00:45:00,72.0,67.6,29.97,North,0,0.0,0.0,86,0.00,,,0.00,WUHU216HW,2013-06-24 04:45:00,
2013-06-24 00:50:00,71.6,67.5,29.97,WNW,287,0.6,0.7,87,0.00,,,0.00,WUHU216HW,2013-06-24 04:50:00,
2013-06-24 00:55:00,71.1,67.4,29.97,NW,315,0.0,0.2,88,0.00,,,0.00,WUHU216HW,2013-06-24 04:55:00,
2013-06-24 01:00:00,70.9,67.2,29.97,North,0,0.0,0.0,88,0.00,,,0.00,WUHU216HW,2013-06-24 05:00:00,
2013-06-24 01:05:00,70.7,67.4,29.97,WSW,246,2.6,4.0,89,0.00,,,0.00,WUHU216HW,2013-06-24 05:05:00,
2013-06-24 01:10:00,70.7,67.4,29.97,SSW,203,0.8,2.5,89,0.00,,,0.00,WUHU216HW,2013-06-24 05:10:00,
2013-06-24 01:15:00,70.7,67.4,29.97,NW,319,1.2,1.3,89,0.00,,,0.00,WUHU216HW,2013-06-24 05:15:00,
2013-06-24 01:20:00,70.9,67.6,29.97,WSW,237,3.0,4.7,89,0.00,,,0.00,WUHU216HW,2013-06-24 05:20:00,
2013-06-24 01:25:00,70.7,67.7,29.97,SW,230,2.0,2.9,91,0.00,,,0.00,WUHU216HW,2013-06-24 05:25:00,
2013-06-24 01:30:00,70.7,67.7,29.98,SW,220,0.6,1.1,91,0.00,,,0.00,WUHU216HW,2013-06-24 05:30:00,
2013-06-24 01:35:00,70.6,67.7,29.98,SW,216,0.6,0.9,91,0.00,,,0.00,WUHU216HW,2013-06-24 05:35:00,
2013-06-24 01:40:00,70.4,67.5,29.98,ESE,113,0.2,0.2,91,0.00,,,0.00,WUHU216HW,2013-06-24 05:40:00,
2013-06-24 01:45:00,70.2,67.6,29.99,SSW,203,0.9,1.1,92,0.00,,,0.00,WUHU216HW,2013-06-24 05:45:00,
2013-06-24 01:51:00,70.0,67.4,29.99,WSW,248,0.1,0.2,92,0.00,,,0.00,WUHU216HW,2013-06-24 05:51:00,
2013-06-24 01:56:00,70.0,67.4,29.99,SW,231,1.3,1.6,92,0.00,,,0.00,WUHU216HW,2013-06-24 05:56:00,
2013-06-24 02:01:00,70.0,67.4,29.99,SSW,201,1.3,2.0,92,0.00,,,0.00,WUHU216HW,2013-06-24 06:01:00,
2013-06-24 02:07:00,69.8,67.2,29.99,SW,225,0.8,1.3,92,0.00,,,0.00,WUHU216HW,2013-06-24 06:07:00,
2013-06-24 02:13:00,70.0,67.8,30.00,West,278,0.6,0.9,93,0.00,,,0.00,WUHU216HW,2013-06-24 06:13:00,
2013-06-24 02:18:00,70.2,68.0,30.00,SW,229,3.0,4.7,93,0.00,,,0.00,WUHU216HW,2013-06-24 06:18:00,
2013-06-24 02:23:00,70.4,68.2,30.00,SW,219,3.4,4.0,93,0.00,,,0.00,WUHU216HW,2013-06-24 06:23:00,
2013-06-24 02:28:00,70.6,68.4,30.00,SW,230,4.5,6.9,93,0.00,,,0.00,WUHU216HW,2013-06-24 06:28:00,
2013-06-24 02:33:00,70.6,68.4,30.00,SW,234,2.6,3.4,93,0.00,,,0.00,WUHU216HW,2013-06-24 06:33:00,
2013-06-24 02:39:00,70.6,68.4,30.00,SSW,202,1.7,2.5,93,0.00,,,0.00,WUHU216HW,2013-06-24 06:39:00,
2013-06-24 02:44:00,70.9,68.7,30.00,SW,217,4.1,5.6,93,0.00,,,0.00,WUHU216HW,2013-06-24 06:44:00,
2013-06-24 02:49:00,70.9,68.7,30.00,SSW,210,3.6,5.4,93,0.00,,,0.00,WUHU216HW,2013-06-24 06:49:00,
2013-06-24 02:55:00,70.9,68.7,30.00,SW,233,4.3,4.7,93,0.00,,,0.00,WUHU216HW,2013-06-24 06:55:00,
2013-06-24 03:01:00,70.9,68.7,30.00,SW,224,2.9,4.9,93,0.00,,,0.00,WUHU216HW,2013-06-24 07:01:00,
2013-06-24 03:06:00,70.9,68.7,30.00,West,276,5.4,6.3,93,0.00,,,0.00,WUHU216HW,2013-06-24 07:06:00,
2013-06-24 03:12:00,71.1,68.9,30.00,SW,230,2.2,3.1,93,0.00,,,0.00,WUHU216HW,2013-06-24 07:12:00,
2013-06-24 03:17:00,71.1,68.9,30.00,WSW,248,0.9,2.5,93,0.00,,,0.00,WUHU216HW,2013-06-24 07:17:00,
2013-06-24 03:23:00,71.1,68.5,30.00,West,260,1.7,2.5,92,0.00,,,0.00,WUHU216HW,2013-06-24 07:23:00,
2013-06-24 03:28:00,71.1,68.5,30.00,West,259,3.5,4.7,92,0.00,,,0.00,WUHU216HW,2013-06-24 07:28:00,
2013-06-24 03:34:00,70.9,68.3,30.00,SSW,213,2.6,3.8,92,0.00,,,0.00,WUHU216HW,2013-06-24 07:34:00,
2013-06-24 03:39:00,70.9,68.3,30.00,SW,230,2.3,2.5,92,0.00,,,0.00,WUHU216HW,2013-06-24 07:39:00,
2013-06-24 03:44:00,70.7,68.1,30.00,WSW,246,2.1,2.5,92,0.00,,,0.00,WUHU216HW,2013-06-24 07:44:00,
2013-06-24 03:49:00,70.4,67.8,30.00,WSW,239,1.8,3.4,92,0.00,,,0.00,WUHU216HW,2013-06-24 07:49:00,
2013-06-24 03:55:00,70.2,67.6,30.00,WSW,238,2.5,2.9,92,0.00,,,0.00,WUHU216HW,2013-06-24 07:55:00,
2013-06-24 04:00:00,69.8,67.2,30.00,SSW,208,0.5,1.3,92,0.00,,,0.00,WUHU216HW,2013-06-24 08:00:00,
2013-06-24 04:06:00,69.7,67.5,30.00,SSE,149,0.8,1.1,93,0.00,,,0.00,WUHU216HW,2013-06-24 08:06:00,
2013-06-24 04:11:00,69.3,67.1,30.00,SW,214,0.7,1.1,93,0.00,,,0.00,WUHU216HW,2013-06-24 08:11:00,
2013-06-24 04:17:00,69.1,66.9,30.00,South,183,0.4,0.7,93,0.00,,,0.00,WUHU216HW,2013-06-24 08:17:00,
2013-06-24 04:22:00,68.8,66.9,30.00,WSW,248,0.0,0.4,94,0.00,,,0.00,WUHU216HW,2013-06-24 08:22:00,
2013-06-24 04:27:00,68.8,66.9,30.00,South,177,0.3,0.7,94,0.00,,,0.00,WUHU216HW,2013-06-24 08:27:00,
2013-06-24 04:32:00,68.4,66.5,30.00,SSW,204,1.5,1.8,94,0.00,,,0.00,WUHU216HW,2013-06-24 08:32:00,
2013-06-24 04:37:00,68.2,66.3,30.00,ESE,113,0.1,0.2,94,0.00,,,0.00,WUHU216HW,2013-06-24 08:37:00,
2013-06-24 04:42:00,68.0,66.1,30.00,West,260,0.4,1.1,94,0.00,,,0.00,WUHU216HW,2013-06-24 08:42:00,
2013-06-24 04:48:00,67.9,66.4,29.99,SSE,153,0.2,0.4,95,0.00,,,0.00,WUHU216HW,2013-06-24 08:48:00,
2013-06-24 04:53:00,67.7,66.2,29.99,SSW,203,0.0,0.2,95,0.00,,,0.00,WUHU216HW,2013-06-24 08:53:00,
2013-06-24 04:58:00,67.7,66.2,29.99,SW,221,0.2,0.7,95,0.00,,,0.00,WUHU216HW,2013-06-24 08:58:00,
2013-06-24 05:03:00,67.3,65.8,29.99,WSW,251,0.4,0.7,95,0.00,,,0.00,WUHU216HW,2013-06-24 09:03:00,
2013-06-24 05:08:00,67.3,65.8,29.99,WSW,248,0.2,0.7,95,0.00,,,0.00,WUHU216HW,2013-06-24 09:08:00,
2013-06-24 05:13:00,67.0,65.8,29.99,SE,135,0.0,0.2,96,0.00,,,0.00,WUHU216HW,2013-06-24 09:13:00,
2013-06-24 05:19:00,67.0,65.8,29.99,SSE,158,0.2,0.4,96,0.00,,,0.00,WUHU216HW,2013-06-24 09:19:00,
2013-06-24 05:24:00,66.6,65.4,29.99,ESE,117,1.0,1.3,96,0.00,,,0.00,WUHU216HW,2013-06-24 09:24:00,
2013-06-24 05:29:00,66.4,65.2,29.99,ESE,113,1.0,1.3,96,0.00,,,0.00,WUHU216HW,2013-06-24 09:29:00,
2013-06-24 05:35:00,66.2,65.0,30.00,North,0,0.0,0.0,96,0.00,,,0.00,WUHU216HW,2013-06-24 09:35:00,
2013-06-24 05:41:00,66.1,64.9,29.99,SSW,195,1.3,1.8,96,0.00,,,0.00,WUHU216HW,2013-06-24 09:41:00,
2013-06-24 05:47:00,65.9,64.8,30.00,SE,137,0.9,1.1,96,0.00,,,0.00,WUHU216HW,2013-06-24 09:47:00,
2013-06-24 05:52:00,65.7,64.9,29.99,North,0,0.0,0.0,97,0.00,,,0.00,WUHU216HW,2013-06-24 09:52:00,
2013-06-24 05:58:00,65.5,64.7,30.00,North,0,0.0,0.0,97,0.00,,,0.00,WUHU216HW,2013-06-24 09:58:00,
2013-06-24 06:03:00,65.3,64.5,30.00,SSE,158,0.3,0.4,97,0.00,,,0.00,WUHU216HW,2013-06-24 10:03:00,
2013-06-24 06:08:00,65.2,64.4,30.00,North,0,0.0,0.0,97,0.00,,,0.00,WUHU216HW,2013-06-24 10:08:00,
2013-06-24 06:13:00,65.2,64.4,30.00,North,0,0.0,0.0,97,0.00,,,0.00,WUHU216HW,2013-06-24 10:13:00,
2013-06-24 06:18:00,65.0,64.2,30.00,ESE,113,0.3,0.4,97,0.00,,,0.00,WUHU216HW,2013-06-24 10:18:00,
2013-06-24 06:23:00,65.0,64.5,30.00,North,0,0.0,0.0,99,0.00,,,0.00,WUHU216HW,2013-06-24 10:23:00,
2013-06-24 06:28:00,64.8,64.3,30.00,WSW,254,0.3,0.9,99,0.00,,,0.00,WUHU216HW,2013-06-24 10:28:00,
2013-06-24 06:33:00,64.8,64.0,30.00,SW,225,0.1,0.4,97,0.00,,,0.00,WUHU216HW,2013-06-24 10:33:00,
2013-06-24 06:39:00,64.8,64.0,30.00,West,270,0.6,1.1,97,0.00,,,0.00,WUHU216HW,2013-06-24 10:39:00,
2013-06-24 06:44:00,65.0,64.2,30.00,ENE,68,0.2,0.4,97,0.00,,,0.00,WUHU216HW,2013-06-24 10:44:00,
2013-06-24 06:51:00,65.2,64.4,30.00,SE,135,0.3,0.4,97,0.00,,,0.00,WUHU216HW,2013-06-24 10:51:00,
2013-06-24 06:56:00,65.3,64.8,30.00,SE,135,0.1,0.2,99,0.00,,,0.00,WUHU216HW,2013-06-24 10:56:00,
2013-06-24 07:01:00,65.5,65.0,30.00,SE,135,0.3,0.4,99,0.00,,,0.00,WUHU216HW,2013-06-24 11:01:00,
2013-06-24 07:07:00,65.9,65.4,30.00,South,188,0.6,1.3,99,0.00,,,0.00,WUHU216HW,2013-06-24 11:07:00,
2013-06-24 07:12:00,66.2,65.7,30.00,SSE,164,1.4,1.8,99,0.00,,,0.00,WUHU216HW,2013-06-24 11:12:00,
2013-06-24 07:17:00,66.6,66.1,30.01,SSW,204,0.8,1.1,99,0.00,,,0.00,WUHU216HW,2013-06-24 11:17:00,
2013-06-24 07:22:00,67.1,66.6,30.01,SSW,210,3.0,3.6,99,0.00,,,0.00,WUHU216HW,2013-06-24 11:22:00,
2013-06-24 07:28:00,67.5,67.0,30.01,South,183,2.6,2.7,99,0.00,,,0.00,WUHU216HW,2013-06-24 11:28:00,
2013-06-24 07:33:00,68.0,67.5,30.01,SSW,211,2.2,3.6,99,0.00,,,0.00,WUHU216HW,2013-06-24 11:33:00,
2013-06-24 07:38:00,68.4,67.9,30.01,SW,230,3.4,4.0,99,0.00,,,0.00,WUHU216HW,2013-06-24 11:38:00,
2013-06-24 07:44:00,68.8,68.3,30.02,SW,223,1.6,2.7,99,0.00,,,0.00,WUHU216HW,2013-06-24 11:44:00,
2013-06-24 07:49:00,69.3,68.5,30.01,West,264,1.0,1.3,97,0.00,,,0.00,WUHU216HW,2013-06-24 11:49:00,
2013-06-24 07:54:00,69.7,68.9,30.01,WSW,240,4.1,5.4,97,0.00,,,0.00,WUHU216HW,2013-06-24 11:54:00,
2013-06-24 08:00:00,70.2,69.0,30.02,West,265,4.1,4.7,96,0.00,,,0.00,WUHU216HW,2013-06-24 12:00:00,
2013-06-24 08:05:00,70.6,69.4,30.02,SSW,200,2.4,3.1,96,0.00,,,0.00,WUHU216HW,2013-06-24 12:05:00,
2013-06-24 08:11:00,71.5,70.3,30.02,West,269,2.6,4.0,96,0.00,,,0.00,WUHU216HW,2013-06-24 12:11:00,
2013-06-24 08:16:00,72.5,71.0,30.02,WSW,243,4.0,5.4,95,0.00,,,0.00,WUHU216HW,2013-06-24 12:16:00,
2013-06-24 08:21:00,73.8,72.3,30.02,WSW,254,5.0,5.6,95,0.00,,,0.00,WUHU216HW,2013-06-24 12:21:00,
2013-06-24 08:26:00,74.7,72.8,30.02,SW,226,4.3,5.8,94,0.00,,,0.00,WUHU216HW,2013-06-24 12:26:00,
2013-06-24 08:31:00,75.6,73.3,30.02,West,272,4.5,4.7,93,0.00,,,0.00,WUHU216HW,2013-06-24 12:31:00,
2013-06-24 08:36:00,76.3,73.7,30.01,SW,233,3.2,5.1,92,0.00,,,0.00,WUHU216HW,2013-06-24 12:36:00,
2013-06-24 08:42:00,77.2,74.2,30.01,SW,225,4.1,5.1,91,0.00,,,0.00,WUHU216HW,2013-06-24 12:42:00,
2013-06-24 08:47:00,77.9,74.1,30.01,WSW,248,2.5,2.9,88,0.00,,,0.00,WUHU216HW,2013-06-24 12:47:00,
2013-06-24 08:53:00,78.3,74.5,30.01,SSE,165,2.1,2.5,88,0.00,,,0.00,WUHU216HW,2013-06-24 12:53:00,
2013-06-24 08:58:00,78.8,74.6,30.01,South,172,5.3,7.6,87,0.00,,,0.00,WUHU216HW,2013-06-24 12:58:00,
2013-06-24 09:04:00,79.4,74.8,30.01,WSW,239,5.5,8.1,86,0.00,,,0.00,WUHU216HW,2013-06-24 13:04:00,
2013-06-24 09:09:00,79.6,75.0,30.02,SSW,205,5.1,6.3,86,0.00,,,0.00,WUHU216HW,2013-06-24 13:09:00,
2013-06-24 09:14:00,79.9,74.9,30.02,SW,215,4.2,5.4,85,0.00,,,0.00,WUHU216HW,2013-06-24 13:14:00,
2013-06-24 09:20:00,79.9,74.9,30.01,SW,215,3.1,4.0,85,0.00,,,0.00,WUHU216HW,2013-06-24 13:20:00,
2013-06-24 09:26:00,80.3,75.3,30.01,South,185,4.4,5.8,85,0.00,,,0.00,WUHU216HW,2013-06-24 13:26:00,
2013-06-24 09:31:00,80.8,75.4,30.01,SW,227,4.7,6.5,84,0.00,,,0.00,WUHU216HW,2013-06-24 13:31:00,
2013-06-24 09:37:00,81.0,75.6,30.01,SSW,210,4.8,5.4,84,0.00,,,0.00,WUHU216HW,2013-06-24 13:37:00,
2013-06-24 09:42:00,81.2,75.4,30.01,WSW,243,4.7,6.0,82,0.00,,,0.00,WUHU216HW,2013-06-24 13:42:00,
2013-06-24 09:47:00,81.4,75.6,30.01,West,261,2.9,3.4,82,0.00,,,0.00,WUHU216HW,2013-06-24 13:47:00,
2013-06-24 09:53:00,81.9,76.1,30.01,SW,225,2.6,3.6,82,0.00,,,0.00,WUHU216HW,2013-06-24 13:53:00,
2013-06-24 09:59:00,81.7,75.5,30.01,West,262,4.5,5.4,81,0.00,,,0.00,WUHU216HW,2013-06-24 13:59:00,
2013-06-24 10:04:00,81.9,75.7,30.01,SW,220,3.1,3.4,81,0.00,,,0.00,WUHU216HW,2013-06-24 14:04:00,
2013-06-24 10:10:00,81.9,75.7,30.01,SW,216,5.2,7.6,81,0.00,,,0.00,WUHU216HW,2013-06-24 14:10:00,
2013-06-24 10:15:00,82.1,76.3,30.01,SW,224,4.0,4.7,82,0.00,,,0.00,WUHU216HW,2013-06-24 14:15:00,
2013-06-24 10:20:00,82.6,76.8,30.01,SW,234,1.9,3.1,82,0.00,,,0.00,WUHU216HW,2013-06-24 14:20:00,
2013-06-24 10:25:00,83.3,77.5,30.01,SW,227,3.7,4.3,82,0.00,,,0.00,WUHU216HW,2013-06-24 14:25:00,
2013-06-24 10:31:00,84.1,78.3,30.01,South,189,7.5,8.7,82,0.00,,,0.00,WUHU216HW,2013-06-24 14:31:00,
2013-06-24 10:36:00,83.9,76.8,30.01,SW,225,4.4,6.3,79,0.00,,,0.00,WUHU216HW,2013-06-24 14:36:00,
2013-06-24 10:41:00,83.5,76.9,30.01,West,273,3.9,4.3,80,0.00,,,0.00,WUHU216HW,2013-06-24 14:41:00,
2013-06-24 10:46:00,83.9,77.2,30.01,WSW,238,5.7,7.6,80,0.00,,,0.00,WUHU216HW,2013-06-24 14:46:00,
2013-06-24 10:51:00,84.4,77.3,30.02,WSW,242,3.6,4.3,79,0.00,,,0.00,WUHU216HW,2013-06-24 14:51:00,
2013-06-24 10:57:00,83.7,75.8,30.02,WNW,285,5.1,6.7,77,0.00,,,0.00,WUHU216HW,2013-06-24 14:57:00,
2013-06-24 11:02:00,83.5,76.9,30.01,SW,219,5.0,6.7,80,0.00,,,0.00,WUHU216HW,2013-06-24 15:02:00,
2013-06-24 11:07:00,84.2,77.1,30.01,SW,231,3.9,6.3,79,0.00,,,0.00,WUHU216HW,2013-06-24 15:07:00,
2013-06-24 11:12:00,85.0,77.5,30.01,West,272,5.3,6.3,78,0.00,,,0.00,WUHU216HW,2013-06-24 15:12:00,
2013-06-24 11:18:00,85.7,78.2,30.01,SW,227,6.4,7.8,78,0.00,,,0.00,WUHU216HW,2013-06-24 15:18:00,
2013-06-24 11:23:00,85.9,77.9,30.01,SW,218,8.3,12.8,77,0.00,,,0.00,WUHU216HW,2013-06-24 15:23:00,
2013-06-24 11:29:00,85.3,77.3,30.02,WSW,244,7.8,8.5,77,0.00,,,0.00,WUHU216HW,2013-06-24 15:29:00,
2013-06-24 11:34:00,84.6,76.2,30.02,SW,231,5.1,7.2,76,0.00,,,0.00,WUHU216HW,2013-06-24 15:34:00,
2013-06-24 11:39:00,84.4,76.0,30.01,SW,219,5.1,6.3,76,0.00,,,0.00,WUHU216HW,2013-06-24 15:39:00,
2013-06-24 11:45:00,84.8,77.3,30.02,SW,216,7.9,8.5,78,0.00,,,0.00,WUHU216HW,2013-06-24 15:45:00,
2013-06-24 11:50:00,85.7,77.7,30.02,West,272,5.8,6.3,77,0.00,,,0.00,WUHU216HW,2013-06-24 15:50:00,
2013-06-24 11:55:00,85.7,77.3,30.02,WSW,251,7.2,9.6,76,0.00,,,0.00,WUHU216HW,2013-06-24 15:55:00,
2013-06-24 12:00:00,86.0,77.6,30.02,WNW,283,8.1,11.4,76,0.00,,,0.00,WUHU216HW,2013-06-24 16:00:00,
2013-06-24 12:05:00,85.7,76.8,30.02,West,262,5.7,7.2,74,0.00,,,0.00,WUHU216HW,2013-06-24 16:05:00,
2013-06-24 12:10:00,85.0,76.2,30.02,SW,220,5.8,6.9,74,0.00,,,0.00,WUHU216HW,2013-06-24 16:10:00,
2013-06-24 12:16:00,84.6,75.8,30.02,SW,222,6.9,8.5,74,0.00,,,0.00,WUHU216HW,2013-06-24 16:16:00,
2013-06-24 12:21:00,85.5,77.5,30.02,SW,222,6.1,8.9,77,0.00,,,0.00,WUHU216HW,2013-06-24 16:21:00,
2013-06-24 12:27:00,86.9,78.9,30.02,WSW,245,3.8,5.4,77,0.00,,,0.00,WUHU216HW,2013-06-24 16:27:00,
2013-06-24 12:32:00,87.7,78.3,30.02,WSW,245,6.3,9.2,73,0.00,,,0.00,WUHU216HW,2013-06-24 16:32:00,
2013-06-24 12:37:00,87.5,78.1,30.02,WSW,250,1.9,2.5,73,0.00,,,0.00,WUHU216HW,2013-06-24 16:37:00,
2013-06-24 12:42:00,86.8,77.4,30.02,SW,214,6.8,7.2,73,0.00,,,0.00,WUHU216HW,2013-06-24 16:42:00,
2013-06-24 12:48:00,86.4,77.1,30.02,WSW,243,5.1,6.7,73,0.00,,,0.00,WUHU216HW,2013-06-24 16:48:00,
2013-06-24 12:53:00,85.7,76.4,30.02,SW,234,4.4,6.7,73,0.00,,,0.00,WUHU216HW,2013-06-24 16:53:00,
2013-06-24 12:58:00,85.3,76.9,30.02,WSW,250,2.7,3.4,76,0.00,,,0.00,WUHU216HW,2013-06-24 16:58:00,
2013-06-24 13:03:00,85.3,76.5,30.02,SW,234,6.6,9.4,74,0.00,,,0.00,WUHU216HW,2013-06-24 17:03:00,
2013-06-24 13:09:00,86.0,77.1,30.01,WSW,252,5.6,8.5,74,0.00,,,0.00,WUHU216HW,2013-06-24 17:09:00,
2013-06-24 13:14:00,86.8,77.9,30.01,West,268,5.2,6.5,74,0.00,,,0.00,WUHU216HW,2013-06-24 17:14:00,
2013-06-24 13:19:00,87.1,77.3,30.01,SW,235,3.6,6.3,72,0.00,,,0.00,WUHU216HW,2013-06-24 17:19:00,
2013-06-24 13:25:00,86.9,77.1,30.01,SW,235,3.7,4.7,72,0.00,,,0.00,WUHU216HW,2013-06-24 17:25:00,
2013-06-24 13:30:00,86.0,76.2,30.01,SW,225,7.8,9.6,72,0.00,,,0.00,WUHU216HW,2013-06-24 17:30:00,
2013-06-24 13:36:00,85.3,76.0,30.00,SSW,200,3.3,6.3,73,0.00,,,0.00,WUHU216HW,2013-06-24 17:36:00,
2013-06-24 13:41:00,86.0,77.1,30.00,WSW,245,3.9,5.4,74,0.00,,,0.00,WUHU216HW,2013-06-24 17:41:00,
2013-06-24 13:47:00,86.9,78.0,30.00,SW,216,4.6,6.3,74,0.00,,,0.00,WUHU216HW,2013-06-24 17:47:00,
2013-06-24 13:52:00,87.7,77.9,29.99,SW,234,3.4,4.3,72,0.00,,,0.00,WUHU216HW,2013-06-24 17:52:00,
2013-06-24 13:57:00,88.6,78.2,29.99,WSW,239,6.3,9.4,71,0.00,,,0.00,WUHU216HW,2013-06-24 17:57:00,
2013-06-24 14:02:00,89.1,78.2,29.99,SW,215,6.6,7.2,70,0.00,,,0.00,WUHU216HW,2013-06-24 18:02:00,
2013-06-24 14:08:00,89.3,75.9,29.99,WSW,256,5.7,7.8,64,0.00,,,0.00,WUHU216HW,2013-06-24 18:08:00,
2013-06-24 14:13:00,88.9,77.6,29.98,SW,226,5.9,9.2,69,0.00,,,0.00,WUHU216HW,2013-06-24 18:13:00,
2013-06-24 14:18:00,89.5,77.1,29.98,West,270,6.0,7.8,66,0.00,,,0.00,WUHU216HW,2013-06-24 18:18:00,
2013-06-24 14:23:00,89.6,76.7,29.98,West,278,6.5,6.9,65,0.00,,,0.00,WUHU216HW,2013-06-24 18:23:00,
2013-06-24 14:29:00,89.6,76.7,29.98,West,262,3.0,4.7,65,0.00,,,0.00,WUHU216HW,2013-06-24 18:29:00,
2013-06-24 14:34:00,90.2,77.3,29.97,WSW,251,5.0,6.5,65,0.00,,,0.00,WUHU216HW,2013-06-24 18:34:00,
2013-06-24 14:39:00,90.7,77.2,29.97,WSW,257,2.2,3.1,64,0.00,,,0.00,WUHU216HW,2013-06-24 18:39:00,
2013-06-24 14:44:00,91.3,77.8,29.97,SW,225,3.7,4.3,64,0.00,,,0.00,WUHU216HW,2013-06-24 18:44:00,
2013-06-24 14:49:00,91.6,77.0,29.96,SW,220,7.7,8.7,62,0.00,,,0.00,WUHU216HW,2013-06-24 18:49:00,
2013-06-24 14:54:00,91.8,77.2,29.96,West,263,3.3,3.6,62,0.00,,,0.00,WUHU216HW,2013-06-24 18:54:00,
2013-06-24 15:00:00,91.8,77.2,29.95,WSW,254,1.3,1.8,62,0.00,,,0.00,WUHU216HW,2013-06-24 19:00:00,
2013-06-24 15:05:00,91.6,77.0,29.95,WSW,252,1.6,2.7,62,0.00,,,0.00,WUHU216HW,2013-06-24 19:05:00,
2013-06-24 15:10:00,91.6,76.4,29.95,South,189,1.3,2.2,61,0.00,,,0.00,WUHU216HW,2013-06-24 19:10:00,
2013-06-24 15:16:00,92.3,76.5,29.95,South,190,5.0,6.3,60,0.00,,,0.00,WUHU216HW,2013-06-24 19:16:00,
2013-06-24 15:21:00,92.7,77.4,29.95,SW,221,2.4,4.7,61,0.00,,,0.00,WUHU216HW,2013-06-24 19:21:00,
2013-06-24 15:26:00,93.6,78.3,29.94,WSW,242,2.1,2.5,61,0.00,,,0.00,WUHU216HW,2013-06-24 19:26:00,
2013-06-24 15:31:00,93.6,76.5,29.94,SW,214,5.7,8.3,57,0.00,,,0.00,WUHU216HW,2013-06-24 19:31:00,
2013-06-24 15:36:00,92.5,76.1,29.94,SW,216,4.0,4.9,58,0.00,,,0.00,WUHU216HW,2013-06-24 19:36:00,
2013-06-24 15:41:00,92.7,76.9,29.94,SW,230,2.8,3.1,60,0.00,,,0.00,WUHU216HW,2013-06-24 19:41:00,
2013-06-24 15:47:00,92.9,77.1,29.94,West,281,2.2,3.4,60,0.00,,,0.00,WUHU216HW,2013-06-24 19:47:00,
2013-06-24 15:52:00,93.2,76.7,29.93,SSE,165,2.3,3.4,58,0.00,,,0.00,WUHU216HW,2013-06-24 19:52:00,
2013-06-24 15:57:00,93.4,76.9,29.93,WSW,258,6.9,8.7,58,0.00,,,0.00,WUHU216HW,2013-06-24 19:57:00,
2013-06-24 16:02:00,93.2,76.1,29.93,SW,219,5.6,7.4,57,0.00,,,0.00,WUHU216HW,2013-06-24 20:02:00,
2013-06-24 16:08:00,93.2,76.7,29.94,SSE,164,2.5,3.8,58,0.00,,,0.00,WUHU216HW,2013-06-24 20:08:00,
2013-06-24 16:13:00,93.6,76.5,29.93,South,180,3.0,5.4,57,0.00,,,0.00,WUHU216HW,2013-06-24 20:13:00,
2013-06-24 16:19:00,93.6,76.5,29.93,WSW,245,4.4,4.7,57,0.00,,,0.00,WUHU216HW,2013-06-24 20:19:00,
2013-06-24 16:24:00,94.1,77.0,29.93,West,265,3.5,4.0,57,0.00,,,0.00,WUHU216HW,2013-06-24 20:24:00,
2013-06-24 16:29:00,94.1,77.0,29.94,WNW,285,3.2,4.3,57,0.00,,,0.00,WUHU216HW,2013-06-24 20:29:00,
2013-06-24 16:34:00,94.5,77.4,29.93,WSW,243,2.4,4.9,57,0.00,,,0.00,WUHU216HW,2013-06-24 20:34:00,
2013-06-24 16:40:00,94.0,77.5,29.93,SSW,205,2.5,4.5,58,0.00,,,0.00,WUHU216HW,2013-06-24 20:40:00,
2013-06-24 16:45:00,94.1,77.6,29.93,WSW,245,1.6,2.0,58,0.00,,,0.00,WUHU216HW,2013-06-24 20:45:00,
2013-06-24 16:50:00,94.3,77.2,29.92,SW,233,1.8,2.0,57,0.00,,,0.00,WUHU216HW,2013-06-24 20:50:00,
2013-06-24 16:55:00,94.3,77.2,29.93,SW,221,2.7,3.4,57,0.00,,,0.00,WUHU216HW,2013-06-24 20:55:00,
2013-06-24 17:01:00,94.5,77.4,29.92,South,175,3.9,4.7,57,0.00,,,0.00,WUHU216HW,2013-06-24 21:01:00,
2013-06-24 17:06:00,94.1,76.4,29.92,SW,235,1.9,2.5,56,0.00,,,0.00,WUHU216HW,2013-06-24 21:06:00,
2013-06-24 17:11:00,94.0,76.9,29.91,WSW,250,1.2,1.8,57,0.00,,,0.00,WUHU216HW,2013-06-24 21:11:00,
2013-06-24 17:16:00,94.1,77.0,29.91,WSW,239,2.4,3.8,57,0.00,,,0.00,WUHU216HW,2013-06-24 21:16:00,
2013-06-24 17:21:00,93.2,75.5,29.91,SW,223,2.9,3.8,56,0.00,,,0.00,WUHU216HW,2013-06-24 21:21:00,
2013-06-24 17:27:00,92.2,74.6,29.91,WSW,248,1.8,2.0,56,0.00,,,0.00,WUHU216HW,2013-06-24 21:27:00,
2013-06-24 17:32:00,91.8,75.4,29.91,West,270,3.1,4.3,58,0.00,,,0.00,WUHU216HW,2013-06-24 21:32:00,
2013-06-24 17:37:00,92.0,75.6,29.90,SW,216,4.3,4.9,58,0.00,,,0.00,WUHU216HW,2013-06-24 21:37:00,
2013-06-24 17:42:00,92.2,75.8,29.90,SW,232,2.4,2.7,58,0.00,,,0.00,WUHU216HW,2013-06-24 21:42:00,
2013-06-24 17:47:00,92.0,75.6,29.90,SSW,196,1.6,2.5,58,0.00,,,0.00,WUHU216HW,2013-06-24 21:47:00,
2013-06-24 17:52:00,91.1,74.8,29.91,West,263,0.9,2.0,58,0.00,,,0.00,WUHU216HW,2013-06-24 21:52:00,
2013-06-24 17:57:00,91.6,75.8,29.90,SW,220,4.1,4.7,60,0.00,,,0.00,WUHU216HW,2013-06-24 21:57:00,
2013-06-24 18:02:00,91.3,74.4,29.90,SW,221,1.4,4.3,57,0.00,,,0.00,WUHU216HW,2013-06-24 22:02:00,
2013-06-24 18:08:00,90.2,73.9,29.91,WSW,248,0.9,1.6,58,0.00,,,0.00,WUHU216HW,2013-06-24 22:08:00,
2013-06-24 18:14:00,90.4,74.7,29.91,SW,236,1.4,1.8,60,0.00,,,0.00,WUHU216HW,2013-06-24 22:14:00,
2013-06-24 18:19:00,90.0,74.3,29.91,SW,232,1.6,1.8,60,0.00,,,0.00,WUHU216HW,2013-06-24 22:19:00,
2013-06-24 18:24:00,89.5,73.8,29.91,WSW,246,2.3,2.9,60,0.00,,,0.00,WUHU216HW,2013-06-24 22:24:00,
2013-06-24 18:29:00,88.4,72.8,29.91,SW,217,2.3,3.4,60,0.00,,,0.00,WUHU216HW,2013-06-24 22:29:00,
2013-06-24 18:35:00,87.5,72.5,29.91,WSW,248,0.7,1.8,61,0.00,,,0.00,WUHU216HW,2013-06-24 22:35:00,
2013-06-24 18:40:00,86.9,72.5,29.91,WSW,241,1.0,1.1,62,0.00,,,0.00,WUHU216HW,2013-06-24 22:40:00,
2013-06-24 18:45:00,86.4,72.6,29.91,SSW,209,1.4,1.8,63,0.00,,,0.00,WUHU216HW,2013-06-24 22:45:00,
2013-06-24 18:50:00,85.1,71.9,29.92,SW,232,10.5,15.0,64,0.00,,,0.00,WUHU216HW,2013-06-24 22:50:00,
2013-06-24 18:56:00,81.0,70.0,29.93,WSW,248,2.7,3.4,69,0.07,,,0.07,WUHU216HW,2013-06-24 22:56:00,
2013-06-24 19:01:00,78.7,69.6,29.93,SW,227,1.6,2.5,73,0.09,,,0.09,WUHU216HW,2013-06-24 23:01:00,
2013-06-24 19:06:00,77.9,69.7,29.92,SSE,158,0.4,0.4,76,0.09,,,0.09,WUHU216HW,2013-06-24 23:06:00,
2013-06-24 19:12:00,78.1,70.8,29.92,ESE,102,1.6,2.0,78,0.09,,,0.09,WUHU216HW,2013-06-24 23:12:00,
2013-06-24 19:17:00,78.1,71.2,29.92,ESE,105,1.2,1.6,79,0.09,,,0.09,WUHU216HW,2013-06-24 23:17:00,
2013-06-24 19:22:00,78.3,72.2,29.93,SW,224,2.7,3.4,81,0.09,,,0.09,WUHU216HW,2013-06-24 23:22:00,
2013-06-24 19:27:00,77.8,71.3,29.93,WSW,247,2.4,3.4,80,0.09,,,0.09,WUHU216HW,2013-06-24 23:27:00,
2013-06-24 19:32:00,77.2,71.1,29.93,WSW,237,1.9,2.2,81,0.09,,,0.09,WUHU216HW,2013-06-24 23:32:00,
2013-06-24 19:37:00,77.0,70.9,29.93,South,177,0.9,1.1,81,0.09,,,0.09,WUHU216HW,2013-06-24 23:37:00,
2013-06-24 19:43:00,77.0,70.9,29.93,SSW,212,0.4,0.4,81,0.09,,,0.09,WUHU216HW,2013-06-24 23:43:00,
2013-06-24 19:48:00,77.2,71.5,29.92,SSW,203,0.8,1.1,82,0.09,,,0.09,WUHU216HW,2013-06-24 23:48:00,
2013-06-24 19:53:00,77.2,71.5,29.92,SW,225,1.3,1.6,82,0.03,,,0.09,WUHU216HW,2013-06-24 23:53:00,
2013-06-24 19:58:00,77.2,71.9,29.91,SSW,205,1.0,1.3,84,0.01,,,0.09,WUHU216HW,2013-06-24 23:58:00,
2013-06-24 20:03:00,76.9,71.6,29.91,SW,225,0.8,1.1,84,0.00,,,0.09,WUHU216HW,2013-06-25 00:03:00,
2013-06-24 20:08:00,76.3,71.4,29.90,SW,225,1.0,1.1,85,0.00,,,0.09,WUHU216HW,2013-06-25 00:08:00,
2013-06-24 20:14:00,76.0,71.1,29.90,SW,225,1.0,1.1,85,0.00,,,0.09,WUHU216HW,2013-06-25 00:14:00,
2013-06-24 20:19:00,75.6,71.1,29.90,North,0,0.0,0.0,86,0.00,,,0.09,WUHU216HW,2013-06-25 00:19:00,
2013-06-24 20:24:00,75.1,70.6,29.90,North,0,0.0,0.0,86,0.00,,,0.09,WUHU216HW,2013-06-25 00:24:00,
2013-06-24 20:29:00,74.5,70.4,29.90,North,0,0.0,0.0,87,0.00,,,0.09,WUHU216HW,2013-06-25 00:29:00,
2013-06-24 20:34:00,74.0,70.3,29.90,North,0,0.0,0.0,88,0.00,,,0.09,WUHU216HW,2013-06-25 00:34:00,
2013-06-24 20:40:00,73.8,70.4,29.90,North,0,0.0,0.0,89,0.00,,,0.09,WUHU216HW,2013-06-25 00:40:00,
2013-06-24 20:45:00,73.6,70.6,29.90,SW,225,2.1,2.9,91,0.00,,,0.09,WUHU216HW,2013-06-25 00:45:00,
2013-06-24 20:51:00,73.3,70.3,29.93,West,267,3.9,6.3,91,0.07,,,0.16,WUHU216HW,2013-06-25 00:51:00,
2013-06-24 20:56:00,72.5,69.9,29.92,WSW,238,6.6,8.5,92,0.27,,,0.36,WUHU216HW,2013-06-25 00:56:00,
2013-06-24 21:01:00,72.0,69.4,29.92,West,270,2.1,5.1,92,0.30,,,0.39,WUHU216HW,2013-06-25 01:01:00,
2013-06-24 21:07:00,71.6,69.0,29.91,ESE,104,1.6,2.2,92,0.31,,,0.40,WUHU216HW,2013-06-25 01:07:00,
2013-06-24 21:12:00,71.3,69.4,29.90,North,358,1.2,1.8,94,0.31,,,0.40,WUHU216HW,2013-06-25 01:12:00,
2013-06-24 21:17:00,70.9,69.0,29.91,ESE,116,0.5,0.7,94,0.31,,,0.40,WUHU216HW,2013-06-25 01:17:00,
2013-06-24 21:23:00,70.7,68.8,29.91,North,0,0.3,0.9,94,0.31,,,0.40,WUHU216HW,2013-06-25 01:23:00,
2013-06-24 21:28:00,70.6,68.7,29.91,SSW,213,1.4,2.0,94,0.31,,,0.40,WUHU216HW,2013-06-25 01:28:00,
2013-06-24 21:33:00,70.4,68.5,29.90,NE,41,0.8,1.1,94,0.31,,,0.40,WUHU216HW,2013-06-25 01:33:00,
2013-06-24 21:38:00,70.2,68.7,29.90,North,0,0.0,0.0,95,0.31,,,0.40,WUHU216HW,2013-06-25 01:38:00,
2013-06-24 21:43:00,70.0,68.5,29.90,SW,225,1.3,1.6,95,0.31,,,0.40,WUHU216HW,2013-06-25 01:43:00,
2013-06-24 21:49:00,69.8,68.3,29.90,SW,225,0.4,0.4,95,0.27,,,0.40,WUHU216HW,2013-06-25 01:49:00,
2013-06-24 21:54:00,69.8,68.3,29.91,SW,225,0.7,1.1,95,0.09,,,0.40,WUHU216HW,2013-06-25 01:54:00,
2013-06-24 21:59:00,69.7,68.2,29.90,ESE,113,1.0,1.1,95,0.02,,,0.40,WUHU216HW,2013-06-25 01:59:00,
2013-06-24 22:05:00,69.7,68.2,29.90,South,190,1.1,1.1,95,0.01,,,0.40,WUHU216HW,2013-06-25 02:05:00,
2013-06-24 22:10:00,69.5,68.3,29.90,NNW,335,0.3,0.9,96,0.00,,,0.40,WUHU216HW,2013-06-25 02:10:00,
2013-06-24 22:16:00,69.5,68.3,29.90,South,178,0.1,0.2,96,0.00,,,0.40,WUHU216HW,2013-06-25 02:16:00,
2013-06-24 22:21:00,69.5,68.3,29.90,ENE,68,0.6,0.9,96,0.00,,,0.40,WUHU216HW,2013-06-25 02:21:00,
2013-06-24 22:26:00,69.3,68.1,29.91,North,0,0.0,0.0,96,0.00,,,0.40,WUHU216HW,2013-06-25 02:26:00,
2013-06-24 22:31:00,69.3,68.1,29.90,ENE,68,0.5,0.7,96,0.00,,,0.40,WUHU216HW,2013-06-25 02:31:00,
2013-06-24 22:36:00,68.9,67.7,29.91,ENE,68,0.8,1.1,96,0.00,,,0.40,WUHU216HW,2013-06-25 02:36:00,
2013-06-24 22:41:00,68.8,67.6,29.90,ENE,69,0.5,0.7,96,0.00,,,0.40,WUHU216HW,2013-06-25 02:41:00,
2013-06-24 22:47:00,68.8,67.6,29.89,East,89,0.5,0.9,96,0.00,,,0.40,WUHU216HW,2013-06-25 02:47:00,
2013-06-24 22:53:00,68.8,68.0,29.89,ESE,113,0.8,0.9,97,0.00,,,0.40,WUHU216HW,2013-06-25 02:53:00,
2013-06-24 22:58:00,68.6,67.8,29.89,North,0,0.0,0.0,97,0.00,,,0.40,WUHU216HW,2013-06-25 02:58:00,
2013-06-24 23:03:00,68.4,67.6,29.88,East,90,1.1,1.3,97,0.00,,,0.40,WUHU216HW,2013-06-25 03:03:00,
2013-06-24 23:08:00,68.4,67.6,29.88,East,90,0.5,0.9,97,0.00,,,0.40,WUHU216HW,2013-06-25 03:08:00,
2013-06-24 23:13:00,68.2,67.4,29.88,East,90,0.2,0.7,97,0.00,,,0.40,WUHU216HW,2013-06-25 03:13:00,
2013-06-24 23:19:00,68.0,67.2,29.88,SW,225,1.8,1.8,97,0.00,,,0.40,WUHU216HW,2013-06-25 03:19:00,
2013-06-24 23:25:00,67.7,66.9,29.88,WSW,245,0.9,1.1,97,0.00,,,0.40,WUHU216HW,2013-06-25 03:25:00,
2013-06-24 23:30:00,67.7,66.9,29.88,North,0,0.0,0.0,97,0.00,,,0.40,WUHU216HW,2013-06-25 03:30:00,
2013-06-24 23:37:00,67.7,67.2,29.88,North,0,0.0,0.0,99,0.00,,,0.40,WUHU216HW,2013-06-25 03:37:00,
2013-06-24 23:43:00,67.7,67.2,29.88,North,0,0.0,0.0,99,0.00,,,0.40,WUHU216HW,2013-06-25 03:43:00,
2013-06-24 23:49:00,67.7,67.2,29.89,North,0,0.0,0.0,99,0.00,,,0.40,WUHU216HW,2013-06-25 03:49:00,
2013-06-24 23:55:00,67.5,67.0,29.89,SW,225,0.3,0.4,99,0.00,,,0.40,WUHU216HW,2013-06-25 03:55:00,